Time;durP1;ratioP1;P1;durP2;ratioP2;P2;SDS_P1;SDS_P2;PMS_P1;PMS_P2;Temp;Humidity;BMP_temperature;BMP_pressure;BME280_temperature;BME280_humidity;BME280_pressure;Samples;Min_cycle;Max_cycle;Signal;HPM_P1;HPM_P2
2024/02/22 00:00:31;;;;;;;;;;;;;;;19.45;49.26;100002.56;2069592;28;6136;-65
2024/02/22 00:01:33;;;;;;;;;;;;;;;19.45;49.22;100002.56;2071380;28;1698;-64
2024/02/22 00:02:35;;;;;;;;;;;;;;;19.44;49.06;99995.31;2071087;28;1620;-64
2024/02/22 00:03:37;;;;;;;;;;;;;;;19.44;49.19;99986.72;2069597;28;1933;-64
2024/02/22 00:04:38;;;;;;;;;;;;;;;19.44;49.20;99989.59;2068639;28;1765;-64
2024/02/22 00:05:39;;;;;;;;;;;;;;;19.43;49.27;99988.13;2070892;28;1720;-64
2024/02/22 00:06:41;;;;;;;;;;;;;;;19.44;49.19;99989.59;2071962;28;1958;-64
2024/02/22 00:07:42;;;;;;;;;;;;;;;19.43;49.23;99976.66;2070573;28;2260;-64
2024/02/22 00:08:44;;;;;;;;;;;;;;;19.43;49.28;99974.50;2071086;28;2294;-64
2024/02/22 00:09:45;;;;;;;;;;;;;;;19.42;49.21;99975.91;2072338;28;2094;-64
2024/02/22 00:10:47;;;;;;;;;;;;;;;19.42;49.15;99964.44;2071358;28;1938;-65
2024/02/22 00:11:48;;;;;;;;;;;;;;;19.42;49.20;99963.69;2072313;28;2357;-64
2024/02/22 00:12:50;;;;;;;;;;;;;;;19.42;49.13;99963.69;2071968;28;1937;-64
2024/02/22 00:13:51;;;;;;;;;;;;;;;19.42;49.12;99955.81;2072371;28;2144;-65
2024/02/22 00:14:53;;;;;;;;;;;;;;;19.43;49.25;99959.41;2072385;28;2279;-64
2024/02/22 00:15:55;;;;;;;;;;;;;;;19.41;49.27;99954.31;2072054;28;2239;-64
2024/02/22 00:16:56;;;;;;;;;;;;;;;19.42;49.14;99940.72;2072189;28;2615;-65
2024/02/22 00:17:58;;;;;;;;;;;;;;;19.41;48.99;99939.97;2070462;28;2317;-65
2024/02/22 00:18:59;;;;;;;;;;;;;;;19.42;49.06;99943.56;2069163;28;2346;-65
2024/02/22 00:20:02;;;;;;;;;;;;;;;19.40;49.24;99937.75;2070656;28;1684;-65
2024/02/22 00:21:04;;;;;;;;;;;;;;;19.40;49.10;99927.03;2070376;28;1671;-72
2024/02/22 00:22:05;;;;;;;;;;;;;;;19.41;49.18;99927.75;2069568;28;2361;-74
2024/02/22 00:23:06;;;;;;;;;;;;;;;19.41;49.19;99922.03;2072937;28;1687;-74
2024/02/22 00:24:08;;;;;;;;;;;;;;;19.41;49.27;99924.88;2069581;28;2343;-73
2024/02/22 00:25:09;;;;;;;;;;;;;;;19.39;49.20;99916.94;2071852;28;1644;-73
2024/02/22 00:26:14;;;;;;;;;;;;;;;19.40;49.03;99920.53;2072756;28;2211;-74
2024/02/22 00:27:15;;;;;;;;;;;;;;;19.39;49.14;99919.81;2071666;28;1910;-74
2024/02/22 00:28:17;;;;;;;;;;;;;;;19.40;49.16;99914.78;2072131;28;1954;-73
2024/02/22 00:29:18;;;;;;;;;;;;;;;19.39;49.04;99907.59;2070136;28;2190;-73
2024/02/22 00:30:22;;;;;;;;;;;;;;;19.39;49.15;99901.84;2072032;28;6432;-74
2024/02/22 00:31:24;;;;;;;;;;;;;;;19.39;49.17;99905.44;2070075;28;1918;-74
2024/02/22 00:32:25;;;;;;;;;;;;;;;19.39;49.18;99896.09;2069622;28;1927;-74
2024/02/22 00:33:27;;;;;;;;;;;;;;;19.40;49.24;99900.44;2072119;28;1940;-73
2024/02/22 00:34:28;;;;;;;;;;;;;;;19.38;49.04;99900.41;2070526;28;2165;-74
2024/02/22 00:35:30;;;;;;;;;;;;;;;19.39;49.19;99899.72;2071512;28;2125;-73
2024/02/22 00:36:41;;;;;;;;;;;;;;;19.39;48.99;99893.25;2072589;28;1883;-73
2024/02/22 00:37:42;;;;;;;;;;;;;;;19.39;49.08;99896.84;2070131;28;1883;-74
2024/02/22 00:38:43;;;;;;;;;;;;;;;19.39;49.15;99890.38;2071449;28;2188;-73
2024/02/22 00:39:46;;;;;;;;;;;;;;;19.37;49.09;99888.16;2070905;28;1832;-73
2024/02/22 00:40:47;;;;;;;;;;;;;;;19.40;49.05;99892.59;2070688;28;1891;-74
2024/02/22 00:41:49;;;;;;;;;;;;;;;19.39;49.04;99884.63;2068586;28;1716;-74
2024/02/22 00:42:50;;;;;;;;;;;;;;;19.39;49.09;99890.38;2069830;28;2219;-74
2024/02/22 00:43:53;;;;;;;;;;;;;;;19.39;49.02;99884.63;2071897;28;2157;-73
2024/02/22 00:44:54;;;;;;;;;;;;;;;19.38;48.95;99883.91;2072195;28;1855;-74
2024/02/22 00:45:56;;;;;;;;;;;;;;;19.39;49.03;99878.88;2072067;28;2264;-73
2024/02/22 00:46:57;;;;;;;;;;;;;;;19.37;49.08;99870.94;2070295;28;1981;-73
2024/02/22 00:47:59;;;;;;;;;;;;;;;19.38;48.97;99874.56;2070148;28;2132;-74
2024/02/22 00:49:01;;;;;;;;;;;;;;;19.37;49.10;99875.94;2068702;28;1642;-74
2024/02/22 00:50:02;;;;;;;;;;;;;;;19.37;49.00;99865.19;2069564;28;2168;-74
2024/02/22 00:51:04;;;;;;;;;;;;;;;19.36;49.06;99869.47;2071139;28;2584;-74
2024/02/22 00:52:05;;;;;;;;;;;;;;;19.37;49.16;99870.19;2072265;28;1834;-73
2024/02/22 00:53:10;;;;;;;;;;;;;;;19.36;49.05;99857.25;2068662;28;2585;-73
2024/02/22 00:54:12;;;;;;;;;;;;;;;19.37;49.16;99858.72;2070404;28;1684;-74
2024/02/22 00:55:13;;;;;;;;;;;;;;;19.36;49.17;99858.00;2072149;28;2070;-74
2024/02/22 00:56:15;;;;;;;;;;;;;;;19.36;48.99;99851.53;2072437;28;2235;-74
2024/02/22 00:57:16;;;;;;;;;;;;;;;19.35;49.08;99850.75;2071334;28;1637;-73
2024/02/22 00:58:18;;;;;;;;;;;;;;;19.35;49.05;99844.28;2072153;28;2130;-74
2024/02/22 00:59:19;;;;;;;;;;;;;;;19.35;49.02;99844.28;2069951;28;2287;-74
2024/02/22 01:00:20;;;;;;;;;;;;;;;19.36;49.06;99845.78;2069386;28;6021;-74
2024/02/22 01:01:22;;;;;;;;;;;;;;;19.34;49.09;99846.44;2067224;28;1708;-73
2024/02/22 01:02:26;;;;;;;;;;;;;;;19.33;49.18;99836.34;2073011;28;1692;-74
2024/02/22 01:03:28;;;;;;;;;;;;;;;19.34;49.11;99849.31;2071824;28;1622;-74
2024/02/22 01:04:30;;;;;;;;;;;;;;;19.33;49.11;99847.81;2070491;28;2265;-74
2024/02/22 01:05:31;;;;;;;;;;;;;;;19.34;49.09;99842.84;2071964;28;1666;-74
2024/02/22 01:06:34;;;;;;;;;;;;;;;19.33;49.08;99839.22;2071077;28;2212;-74
2024/02/22 01:07:35;;;;;;;;;;;;;;;19.34;49.09;99837.09;2069409;28;2386;-75
2024/02/22 01:08:37;;;;;;;;;;;;;;;19.34;49.00;99831.34;2067812;28;2255;-74
2024/02/22 01:09:38;;;;;;;;;;;;;;;19.33;49.07;99824.13;2069684;28;2108;-74
2024/02/22 01:10:39;;;;;;;;;;;;;;;19.33;49.08;99824.13;2070716;28;1596;-74
2024/02/22 01:11:41;;;;;;;;;;;;;;;19.33;49.06;99829.88;2068474;28;1626;-74
2024/02/22 01:12:42;;;;;;;;;;;;;;;19.33;48.94;99818.38;2070002;28;2221;-74
2024/02/22 01:13:44;;;;;;;;;;;;;;;19.32;48.96;99817.66;2073981;28;1579;-74
2024/02/22 01:14:45;;;;;;;;;;;;;;;19.33;49.00;99824.13;2071792;28;2297;-74
2024/02/22 01:15:46;;;;;;;;;;;;;;;19.33;49.08;99818.38;2069232;28;2223;-74
2024/02/22 01:16:48;;;;;;;;;;;;;;;19.32;48.98;99816.94;2068828;28;2315;-74
2024/02/22 01:17:49;;;;;;;;;;;;;;;19.33;49.00;99818.38;2070275;28;1786;-74
2024/02/22 01:18:51;;;;;;;;;;;;;;;19.32;49.02;99816.94;2069959;28;1587;-73
2024/02/22 01:19:52;;;;;;;;;;;;;;;19.32;48.95;99811.19;2068639;28;2270;-74
2024/02/22 01:20:54;;;;;;;;;;;;;;;19.31;48.93;99813.34;2070278;28;2296;-74
2024/02/22 01:21:56;;;;;;;;;;;;;;;19.31;48.92;99804.72;2070705;28;1628;-74
2024/02/22 01:23:00;;;;;;;;;;;;;;;19.32;48.92;99800.44;2069080;28;1818;-73
2024/02/22 01:24:02;;;;;;;;;;;;;;;19.32;48.90;99805.44;2071417;28;1529;-74
2024/02/22 01:25:03;;;;;;;;;;;;;;;19.33;48.87;99795.44;2070874;28;2278;-74
2024/02/22 01:26:05;;;;;;;;;;;;;;;19.31;48.94;99796.09;2069405;28;2267;-74
2024/02/22 01:27:07;;;;;;;;;;;;;;;19.31;48.98;99792.47;2070600;28;2205;-74
2024/02/22 01:28:12;;;;;;;;;;;;;;;19.31;48.88;99786.75;2071633;28;2153;-74
2024/02/22 01:29:13;;;;;;;;;;;;;;;19.30;48.93;99782.41;2070227;28;1873;-74
2024/02/22 01:30:15;;;;;;;;;;;;;;;19.29;48.85;99784.56;2067740;28;6281;-74
2024/02/22 01:31:17;;;;;;;;;;;;;;;19.30;48.63;99770.94;2068932;28;1802;-74
2024/02/22 01:32:18;;;;;;;;;;;;;;;19.30;48.81;99768.78;2072158;28;1810;-74
2024/02/22 01:33:19;;;;;;;;;;;;;;;19.30;48.81;99771.66;2073002;28;1560;-75
2024/02/22 01:34:21;;;;;;;;;;;;;;;19.30;48.76;99765.19;2068378;28;2245;-75
2024/02/22 01:35:22;;;;;;;;;;;;;;;19.30;48.71;99759.47;2068590;28;2185;-75
2024/02/22 01:36:24;;;;;;;;;;;;;;;19.29;48.73;99755.09;2071858;28;2272;-75
2024/02/22 01:37:25;;;;;;;;;;;;;;;19.30;48.74;99750.84;2070777;28;1564;-76
2024/02/22 01:38:26;;;;;;;;;;;;;;;19.30;48.63;99750.84;2070360;28;2180;-75
2024/02/22 01:39:28;;;;;;;;;;;;;;;19.30;48.77;99753.72;2068524;28;1588;-75
2024/02/22 01:40:30;;;;;;;;;;;;;;;19.28;48.78;99748.63;2070016;28;2213;-75
2024/02/22 01:41:31;;;;;;;;;;;;;;;19.29;48.70;99749.38;2070707;28;1556;-75
2024/02/22 01:42:33;;;;;;;;;;;;;;;19.29;48.81;99746.50;2072135;28;1531;-75
2024/02/22 01:43:34;;;;;;;;;;;;;;;19.29;48.68;99747.25;2068839;28;2184;-75
2024/02/22 01:44:36;;;;;;;;;;;;;;;19.30;48.75;99739.38;2066621;28;2276;-75
2024/02/22 01:45:37;;;;;;;;;;;;;;;19.29;48.68;99740.75;2071788;28;2255;-75
2024/02/22 01:46:39;;;;;;;;;;;;;;;19.27;48.67;99729.94;2071517;28;2398;-75
2024/02/22 01:47:40;;;;;;;;;;;;;;;19.29;48.78;99735.00;2071570;28;1971;-75
2024/02/22 01:48:42;;;;;;;;;;;;;;;19.28;48.66;99730.69;2067254;28;2114;-75
2024/02/22 01:49:44;;;;;;;;;;;;;;;19.28;48.56;99733.56;2073930;28;2120;-73
2024/02/22 01:50:52;;;;;;;;;;;;;;;19.27;48.57;99729.22;2066677;28;2364;-75
2024/02/22 01:51:57;;;;;;;;;;;;;;;19.28;48.68;99719.19;2068958;28;1739;-75
2024/02/22 01:52:59;;;;;;;;;;;;;;;19.28;48.54;99724.94;2071367;28;1761;-75
2024/02/22 01:54:01;;;;;;;;;;;;;;;19.28;48.58;99722.06;2068534;28;2238;-74
2024/02/22 01:55:06;;;;;;;;;;;;;;;19.27;48.62;99712.72;2068927;28;2279;-74
2024/02/22 01:56:08;;;;;;;;;;;;;;;19.27;48.59;99709.13;2070468;28;1851;-75
2024/02/22 01:57:09;;;;;;;;;;;;;;;19.27;48.64;99709.13;2070501;28;2220;-75
2024/02/22 01:58:12;;;;;;;;;;;;;;;19.27;48.67;99704.13;2070798;28;1737;-74
2024/02/22 01:59:13;;;;;;;;;;;;;;;19.27;48.58;99697.66;2068589;28;2228;-75
2024/02/22 02:00:17;;;;;;;;;;;;;;;19.27;48.50;99689.03;2069109;28;6144;-75
2024/02/22 02:01:20;;;;;;;;;;;;;;;19.25;48.56;99696.19;2070366;28;2303;-75
2024/02/22 02:02:21;;;;;;;;;;;;;;;19.26;48.63;99694.03;2070607;28;2332;-75
2024/02/22 02:03:22;;;;;;;;;;;;;;;19.27;48.63;99691.91;2071844;28;1879;-74
2024/02/22 02:04:24;;;;;;;;;;;;;;;19.26;48.59;99685.41;2070626;28;2228;-74
2024/02/22 02:05:25;;;;;;;;;;;;;;;19.25;48.58;99687.56;2070785;28;2200;-75
2024/02/22 02:06:27;;;;;;;;;;;;;;;19.26;48.45;99679.69;2069116;28;2621;-74
2024/02/22 02:07:29;;;;;;;;;;;;;;;19.25;48.44;99678.22;2067091;28;1906;-74
2024/02/22 02:08:30;;;;;;;;;;;;;;;19.25;48.52;99681.81;2068549;28;2228;-75
2024/02/22 02:09:31;;;;;;;;;;;;;;;19.24;48.56;99683.25;2066246;28;2251;-74
2024/02/22 02:10:33;;;;;;;;;;;;;;;19.25;48.56;99673.22;2070066;28;2370;-74
2024/02/22 02:11:34;;;;;;;;;;;;;;;19.25;48.45;99675.34;2068682;28;1647;-74
2024/02/22 02:12:37;;;;;;;;;;;;;;;19.25;48.47;99669.63;2068772;28;2350;-75
2024/02/22 02:13:38;;;;;;;;;;;;;;;19.24;48.53;99668.13;2071057;28;2160;-75
2024/02/22 02:14:40;;;;;;;;;;;;;;;19.24;48.59;99665.25;2069784;28;1782;-75
2024/02/22 02:15:42;;;;;;;;;;;;;;;19.23;48.56;99664.53;2067238;28;2208;-75
2024/02/22 02:16:43;;;;;;;;;;;;;;;19.24;48.50;99662.41;2070746;28;2553;-74
2024/02/22 02:17:44;;;;;;;;;;;;;;;19.23;48.49;99655.19;2071236;28;2481;-74
2024/02/22 02:18:46;;;;;;;;;;;;;;;19.23;48.52;99661.66;2070860;28;2267;-75
2024/02/22 02:19:47;;;;;;;;;;;;;;;19.23;48.54;99650.19;2070933;28;2252;-74
2024/02/22 02:20:59;;;;;;;;;;;;;;;19.23;48.58;99655.94;2069873;28;1657;-75
2024/02/22 02:22:11;;;;;;;;;;;;;;;19.23;48.66;99644.44;2067837;28;1806;-75
2024/02/22 02:23:27;;;;;;;;;;;;;;;19.23;48.43;99647.31;2067491;28;2223;-75
2024/02/22 02:24:32;;;;;;;;;;;;;;;19.23;48.59;99644.44;2070823;28;2184;-75
2024/02/22 02:25:33;;;;;;;;;;;;;;;19.22;48.46;99643.00;2071853;28;1708;-74
2024/02/22 02:26:35;;;;;;;;;;;;;;;19.21;48.32;99635.78;2066545;28;2521;-75
2024/02/22 02:27:39;;;;;;;;;;;;;;;19.22;48.53;99625.03;2066961;28;2256;-74
2024/02/22 02:28:41;;;;;;;;;;;;;;;19.21;48.45;99635.03;2065929;28;2261;-75
2024/02/22 02:29:43;;;;;;;;;;;;;;;19.21;48.42;99635.78;2068348;28;2106;-75
2024/02/22 02:30:44;;;;;;;;;;;;;;;19.22;48.36;99630.78;2067423;28;6155;-74
2024/02/22 02:31:46;;;;;;;;;;;;;;;19.22;48.50;99625.78;2067964;28;2269;-74
2024/02/22 02:32:47;;;;;;;;;;;;;;;19.21;48.41;99621.41;2071851;28;2090;-75
2024/02/22 02:33:49;;;;;;;;;;;;;;;19.24;48.43;99622.22;2070140;28;2289;-75
2024/02/22 02:34:50;;;;;;;;;;;;;;;19.23;48.49;99618.63;2068151;28;2211;-74
2024/02/22 02:35:52;;;;;;;;;;;;;;;19.23;48.47;99606.41;2071292;28;2217;-74
2024/02/22 02:36:53;;;;;;;;;;;;;;;19.22;48.35;99613.56;2069701;28;1824;-74
2024/02/22 02:37:57;;;;;;;;;;;;;;;19.23;48.18;99607.16;2069809;28;2305;-75
2024/02/22 02:38:59;;;;;;;;;;;;;;;19.21;48.39;99607.06;2071094;28;2272;-74
2024/02/22 02:40:01;;;;;;;;;;;;;;;19.21;48.29;99589.84;2073925;28;1920;-74
2024/02/22 02:41:02;;;;;;;;;;;;;;;19.20;48.29;99591.28;2069997;28;1935;-74
2024/02/22 02:42:05;;;;;;;;;;;;;;;19.20;48.43;99594.16;2069594;28;2440;-75
2024/02/22 02:43:07;;;;;;;;;;;;;;;19.20;48.36;99588.41;2069446;28;1781;-75
2024/02/22 02:44:08;;;;;;;;;;;;;;;19.21;48.26;99589.84;2066838;28;2122;-75
2024/02/22 02:45:09;;;;;;;;;;;;;;;19.21;48.32;99589.84;2071343;28;2171;-74
2024/02/22 02:46:11;;;;;;;;;;;;;;;19.20;48.20;99594.16;2070481;28;2640;-75
2024/02/22 02:47:12;;;;;;;;;;;;;;;19.20;48.31;99579.78;2063440;28;2059;-75
2024/02/22 02:48:19;;;;;;;;;;;;;;;19.21;48.33;99578.38;2070214;28;2332;-74
2024/02/22 02:49:20;;;;;;;;;;;;;;;19.20;48.31;99570.47;2071497;28;1779;-75
2024/02/22 02:50:22;;;;;;;;;;;;;;;19.19;48.24;99575.44;2070523;28;2153;-75
2024/02/22 02:51:23;;;;;;;;;;;;;;;19.19;48.24;99561.09;2068478;28;1716;-74
2024/02/22 02:52:25;;;;;;;;;;;;;;;19.20;48.28;99562.56;2068321;28;2210;-74
2024/02/22 02:53:26;;;;;;;;;;;;;;;19.19;48.32;99563.25;2069030;28;1628;-75
2024/02/22 02:54:27;;;;;;;;;;;;;;;19.20;48.34;99553.25;2070454;28;2019;-75
2024/02/22 02:55:29;;;;;;;;;;;;;;;19.19;48.35;99552.50;2068946;28;2205;-75
2024/02/22 02:56:31;;;;;;;;;;;;;;;19.19;48.28;99554.63;2069316;28;1631;-74
2024/02/22 02:57:33;;;;;;;;;;;;;;;19.19;48.26;99558.22;2070985;28;2189;-74
2024/02/22 02:58:34;;;;;;;;;;;;;;;19.19;48.24;99557.50;2067556;28;2271;-74
2024/02/22 02:59:36;;;;;;;;;;;;;;;19.18;48.31;99551.03;2067701;28;1656;-75
2024/02/22 03:00:38;;;;;;;;;;;;;;;19.18;48.16;99551.03;2067888;28;6107;-75
2024/02/22 03:01:46;;;;;;;;;;;;;;;19.19;48.22;99552.50;2069138;28;1674;-74
2024/02/22 03:02:47;;;;;;;;;;;;;;;19.18;48.24;99545.28;2067813;28;1632;-75
2024/02/22 03:03:49;;;;;;;;;;;;;;;19.18;48.22;99544.56;2069180;28;1768;-74
2024/02/22 03:04:50;;;;;;;;;;;;;;;19.18;48.22;99533.81;2066906;28;2277;-75
2024/02/22 03:05:52;;;;;;;;;;;;;;;19.18;48.20;99545.28;2066272;28;2356;-75
2024/02/22 03:06:53;;;;;;;;;;;;;;;19.17;48.23;99535.22;2068934;28;1859;-74
2024/02/22 03:07:55;;;;;;;;;;;;;;;19.18;48.19;99538.84;2069710;28;1661;-74
2024/02/22 03:08:56;;;;;;;;;;;;;;;19.17;48.11;99532.38;2066000;28;2249;-75
2024/02/22 03:09:58;;;;;;;;;;;;;;;19.18;48.21;99528.06;2068270;28;2254;-74
2024/02/22 03:10:59;;;;;;;;;;;;;;;19.17;48.21;99532.38;2069250;28;2132;-75
2024/02/22 03:12:00;;;;;;;;;;;;;;;19.18;48.12;99533.81;2067424;28;2177;-75
2024/02/22 03:13:07;;;;;;;;;;;;;;;19.18;48.15;99533.81;2068877;28;2394;-75
2024/02/22 03:14:09;;;;;;;;;;;;;;;19.18;48.07;99518.75;2069330;28;1621;-75
2024/02/22 03:15:11;;;;;;;;;;;;;;;19.18;48.21;99522.34;2068154;28;2303;-73
2024/02/22 03:16:12;;;;;;;;;;;;;;;19.18;48.12;99528.06;2069244;28;2458;-74
2024/02/22 03:17:14;;;;;;;;;;;;;;;19.17;48.21;99515.16;2070159;28;2545;-75
2024/02/22 03:18:15;;;;;;;;;;;;;;;19.17;48.20;99520.13;2065989;28;1955;-74
2024/02/22 03:19:16;;;;;;;;;;;;;;;19.17;48.16;99518.03;2069974;28;2153;-75
2024/02/22 03:20:18;;;;;;;;;;;;;;;19.16;48.21;99516.53;2066303;28;2331;-74
2024/02/22 03:21:21;;;;;;;;;;;;;;;19.17;48.26;99520.88;2071354;28;1597;-74
2024/02/22 03:22:22;;;;;;;;;;;;;;;19.16;48.22;99519.41;2070424;28;1709;-75
2024/02/22 03:23:25;;;;;;;;;;;;;;;19.16;48.13;99518.69;2072114;28;1708;-75
2024/02/22 03:24:26;;;;;;;;;;;;;;;19.15;47.93;99515.09;2069840;28;1959;-75
2024/02/22 03:25:28;;;;;;;;;;;;;;;19.16;48.19;99518.69;2069451;28;2359;-75
2024/02/22 03:26:29;;;;;;;;;;;;;;;19.15;48.04;99511.47;2068143;28;2063;-75
2024/02/22 03:27:32;;;;;;;;;;;;;;;19.15;48.11;99511.47;2069862;28;1582;-75
2024/02/22 03:28:34;;;;;;;;;;;;;;;19.15;48.19;99505.72;2067846;28;2155;-75
2024/02/22 03:29:35;;;;;;;;;;;;;;;19.15;47.96;99512.22;2066089;28;2138;-74
2024/02/22 03:30:36;;;;;;;;;;;;;;;19.15;48.04;99502.84;2069817;28;6203;-74
2024/02/22 03:31:38;;;;;;;;;;;;;;;19.15;48.16;99495.00;2070186;28;2242;-75
2024/02/22 03:32:41;;;;;;;;;;;;;;;19.15;48.21;99499.97;2069270;28;1867;-74
2024/02/22 03:33:42;;;;;;;;;;;;;;;19.13;48.04;99506.41;2068799;28;2010;-75
2024/02/22 03:34:44;;;;;;;;;;;;;;;19.13;48.05;99497.81;2069260;28;2076;-75
2024/02/22 03:35:45;;;;;;;;;;;;;;;19.14;48.07;99484.19;2070394;28;2062;-75
2024/02/22 03:36:48;;;;;;;;;;;;;;;19.13;48.02;99497.81;2067825;28;1662;-75
2024/02/22 03:37:50;;;;;;;;;;;;;;;19.14;47.97;99492.78;2070405;28;1626;-75
2024/02/22 03:38:53;;;;;;;;;;;;;;;19.14;47.97;99487.78;2066720;28;2274;-74
2024/02/22 03:39:54;;;;;;;;;;;;;;;19.13;47.87;99489.19;2070612;28;2142;-75
2024/02/22 03:40:56;;;;;;;;;;;;;;;19.14;47.94;99492.78;2069493;28;1874;-74
2024/02/22 03:41:57;;;;;;;;;;;;;;;19.14;48.00;99493.53;2071344;28;2022;-75
2024/02/22 03:42:58;;;;;;;;;;;;;;;19.14;47.95;99487.06;2067564;28;2135;-74
2024/02/22 03:44:00;;;;;;;;;;;;;;;19.13;47.97;99486.31;2069905;28;1696;-74
2024/02/22 03:45:02;;;;;;;;;;;;;;;19.13;48.01;99486.31;2067599;28;2294;-74
2024/02/22 03:46:04;;;;;;;;;;;;;;;19.13;48.04;99480.59;2067085;28;2490;-75
2024/02/22 03:47:05;;;;;;;;;;;;;;;19.12;48.10;99473.38;2070352;28;1787;-75
2024/02/22 03:48:07;;;;;;;;;;;;;;;19.12;48.10;99479.13;2070744;28;1891;-75
2024/02/22 03:49:08;;;;;;;;;;;;;;;19.13;48.01;99480.59;2067778;28;2166;-75
2024/02/22 03:50:10;;;;;;;;;;;;;;;19.13;48.07;99477.72;2070587;28;2053;-74
2024/02/22 03:51:11;;;;;;;;;;;;;;;19.14;48.02;99470.56;2069884;28;1747;-75
2024/02/22 03:52:13;;;;;;;;;;;;;;;19.15;47.98;99477.03;2068405;28;1633;-75
2024/02/22 03:53:15;;;;;;;;;;;;;;;19.15;47.92;99472.03;2069148;28;2394;-75
2024/02/22 03:54:17;;;;;;;;;;;;;;;19.15;47.97;99472.03;2067894;28;2517;-75
2024/02/22 03:55:18;;;;;;;;;;;;;;;19.17;47.85;99472.09;2069942;28;2119;-75
2024/02/22 03:56:19;;;;;;;;;;;;;;;19.17;47.86;99463.50;2068694;28;2042;-74
2024/02/22 03:57:21;;;;;;;;;;;;;;;19.18;48.00;99455.63;2069034;28;1776;-75
2024/02/22 03:58:22;;;;;;;;;;;;;;;19.19;48.23;99465.69;2069562;28;1713;-74
2024/02/22 03:59:24;;;;;;;;;;;;;;;19.19;48.18;99466.41;2068438;28;2091;-75
2024/02/22 04:00:25;;;;;;;;;;;;;;;19.19;48.28;99466.41;2067180;28;6111;-74
2024/02/22 04:01:27;;;;;;;;;;;;;;;19.20;48.31;99467.88;2068020;28;2246;-75
2024/02/22 04:02:28;;;;;;;;;;;;;;;19.20;48.33;99462.16;2069174;28;1614;-74
2024/02/22 04:03:31;;;;;;;;;;;;;;;19.20;48.35;99462.16;2069895;28;1914;-75
2024/02/22 04:04:32;;;;;;;;;;;;;;;19.21;48.43;99463.59;2067866;28;2054;-75
2024/02/22 04:05:34;;;;;;;;;;;;;;;19.21;48.49;99452.13;2069045;28;2204;-75
2024/02/22 04:06:36;;;;;;;;;;;;;;;19.21;48.42;99437.03;2067355;28;2165;-75
2024/02/22 04:07:42;;;;;;;;;;;;;;;19.22;48.50;99459.34;2069888;28;1641;-74
2024/02/22 04:08:44;;;;;;;;;;;;;;;19.23;48.52;99452.19;2068489;28;2172;-74
2024/02/22 04:09:45;;;;;;;;;;;;;;;19.23;48.51;99455.03;2068025;28;2073;-74
2024/02/22 04:10:46;;;;;;;;;;;;;;;19.22;48.45;99453.59;2069819;28;2119;-75
2024/02/22 04:11:48;;;;;;;;;;;;;;;19.23;48.51;99449.31;2070587;28;1699;-75
2024/02/22 04:12:49;;;;;;;;;;;;;;;19.23;48.74;99443.56;2068354;28;2168;-73
2024/02/22 04:13:51;;;;;;;;;;;;;;;19.22;48.57;99442.13;2070871;28;1625;-75
2024/02/22 04:14:52;;;;;;;;;;;;;;;19.23;48.39;99440.69;2067825;28;2160;-75
2024/02/22 04:15:54;;;;;;;;;;;;;;;19.22;48.58;99438.53;2066238;28;2141;-75
2024/02/22 04:16:55;;;;;;;;;;;;;;;19.23;48.67;99431.38;2069462;28;2161;-74
2024/02/22 04:17:57;;;;;;;;;;;;;;;19.23;48.67;99420.63;2070716;28;1633;-75
2024/02/22 04:18:59;;;;;;;;;;;;;;;19.23;48.59;99432.09;2069187;28;2091;-75
2024/02/22 04:20:01;;;;;;;;;;;;;;;19.23;48.70;99437.84;2069747;28;2040;-75
2024/02/22 04:21:03;;;;;;;;;;;;;;;19.23;48.66;99437.84;2069619;28;2079;-75
2024/02/22 04:22:04;;;;;;;;;;;;;;;19.22;48.69;99424.91;2070205;28;2160;-75
2024/02/22 04:23:05;;;;;;;;;;;;;;;19.22;48.72;99424.91;2067412;28;1943;-75
2024/02/22 04:24:07;;;;;;;;;;;;;;;19.22;48.76;99419.16;2070844;28;2122;-75
2024/02/22 04:25:09;;;;;;;;;;;;;;;19.23;48.67;99423.47;2064058;28;2089;-75
2024/02/22 04:26:10;;;;;;;;;;;;;;;19.24;48.75;99422.09;2067785;28;2250;-74
2024/02/22 04:27:12;;;;;;;;;;;;;;;19.24;48.76;99419.22;2070426;28;2087;-75
2024/02/22 04:28:18;;;;;;;;;;;;;;;19.24;48.83;99415.59;2066529;28;1867;-75
2024/02/22 04:29:20;;;;;;;;;;;;;;;19.24;48.81;99410.63;2070275;28;1918;-75
2024/02/22 04:30:21;;;;;;;;;;;;;;;19.24;48.86;99416.34;2067689;28;6109;-75
2024/02/22 04:31:22;;;;;;;;;;;;;;;19.24;48.93;99404.88;2071094;28;2519;-74
2024/02/22 04:32:24;;;;;;;;;;;;;;;19.25;48.90;99412.06;2068118;28;1715;-75
2024/02/22 04:33:25;;;;;;;;;;;;;;;19.27;48.81;99407.81;2069562;28;2234;-75
2024/02/22 04:34:27;;;;;;;;;;;;;;;19.27;48.89;99407.81;2068426;28;2132;-75
2024/02/22 04:35:29;;;;;;;;;;;;;;;19.26;48.75;99398.44;2069573;28;1914;-75
2024/02/22 04:36:31;;;;;;;;;;;;;;;19.28;48.85;99404.22;2068599;28;2142;-75
2024/02/22 04:37:32;;;;;;;;;;;;;;;19.28;48.91;99403.50;2067099;28;2049;-75
2024/02/22 04:38:34;;;;;;;;;;;;;;;19.28;48.96;99407.09;2069067;28;2038;-75
2024/02/22 04:39:35;;;;;;;;;;;;;;;19.29;48.95;99410.69;2067655;28;2198;-75
2024/02/22 04:40:37;;;;;;;;;;;;;;;19.29;48.95;99408.59;2067563;28;1707;-75
2024/02/22 04:41:40;;;;;;;;;;;;;;;19.30;48.76;99406.44;2067518;28;1986;-74
2024/02/22 04:42:41;;;;;;;;;;;;;;;19.30;48.93;99409.31;2070661;28;1644;-74
2024/02/22 04:43:43;;;;;;;;;;;;;;;19.29;48.89;99399.97;2070082;28;1593;-74
2024/02/22 04:44:44;;;;;;;;;;;;;;;19.31;49.15;99402.16;2070047;28;1937;-74
2024/02/22 04:45:46;;;;;;;;;;;;;;;19.30;49.04;99403.56;2069364;28;2124;-75
2024/02/22 04:46:47;;;;;;;;;;;;;;;19.30;48.95;99412.91;2068514;28;2225;-75
2024/02/22 04:47:50;;;;;;;;;;;;;;;19.31;49.10;99405.78;2069760;28;2176;-74
2024/02/22 04:48:51;;;;;;;;;;;;;;;19.30;49.12;99394.97;2070746;28;1671;-75
2024/02/22 04:49:53;;;;;;;;;;;;;;;19.31;49.06;99387.81;2071276;28;1914;-75
2024/02/22 04:50:54;;;;;;;;;;;;;;;19.30;49.04;99394.97;2067302;28;2150;-75
2024/02/22 04:51:56;;;;;;;;;;;;;;;19.30;49.01;99395.69;2071489;28;1667;-75
2024/02/22 04:52:57;;;;;;;;;;;;;;;19.31;48.87;99390.66;2068884;28;2189;-75
2024/02/22 04:54:00;;;;;;;;;;;;;;;19.31;49.08;99384.94;2070566;28;2073;-75
2024/02/22 04:55:03;;;;;;;;;;;;;;;19.30;49.22;99387.06;2067886;28;2104;-75
2024/02/22 04:56:05;;;;;;;;;;;;;;;19.30;49.00;99384.22;2079696;28;2242;-75
2024/02/22 04:57:06;;;;;;;;;;;;;;;19.31;49.13;99384.94;2071589;28;1680;-75
2024/02/22 04:58:07;;;;;;;;;;;;;;;19.31;49.04;99390.66;2072360;28;1703;-74
2024/02/22 04:59:09;;;;;;;;;;;;;;;19.31;49.12;99382.81;2069691;28;2099;-74
2024/02/22 05:00:10;;;;;;;;;;;;;;;19.32;49.21;99383.53;2066721;28;6108;-74
2024/02/22 05:01:12;;;;;;;;;;;;;;;19.31;49.18;99385.69;2072199;28;2488;-74
2024/02/22 05:02:14;;;;;;;;;;;;;;;19.32;49.25;99381.41;2069253;28;1998;-73
2024/02/22 05:03:15;;;;;;;;;;;;;;;19.32;49.21;99380.66;2070987;28;1945;-74
2024/02/22 05:04:16;;;;;;;;;;;;;;;19.33;49.22;99382.13;2067245;28;2048;-74
2024/02/22 05:05:18;;;;;;;;;;;;;;;19.33;49.16;99385.00;2069745;28;1632;-74
2024/02/22 05:06:20;;;;;;;;;;;;;;;19.33;49.20;99379.25;2068568;28;2178;-73
2024/02/22 05:07:21;;;;;;;;;;;;;;;19.33;49.26;99377.09;2072710;28;1807;-74
2024/02/22 05:08:23;;;;;;;;;;;;;;;19.34;49.30;99372.13;2068038;28;2081;-74
2024/02/22 05:09:25;;;;;;;;;;;;;;;19.33;49.26;99368.50;2069587;28;2179;-74
2024/02/22 05:10:26;;;;;;;;;;;;;;;19.34;49.29;99366.38;2068605;28;2032;-74
2024/02/22 05:11:28;;;;;;;;;;;;;;;19.35;49.36;99356.34;2070013;28;1672;-74
2024/02/22 05:12:29;;;;;;;;;;;;;;;19.35;49.40;99362.81;2068648;28;2183;-74
2024/02/22 05:13:31;;;;;;;;;;;;;;;19.36;49.27;99357.81;2069077;28;1697;-74
2024/02/22 05:14:32;;;;;;;;;;;;;;;19.35;49.41;99362.09;2069752;28;1890;-75
2024/02/22 05:15:33;;;;;;;;;;;;;;;19.36;49.38;99360.69;2071548;28;2136;-75
2024/02/22 05:16:35;;;;;;;;;;;;;;;19.35;49.40;99351.34;2071500;28;2197;-74
2024/02/22 05:17:39;;;;;;;;;;;;;;;19.35;49.38;99350.59;2069069;28;1780;-74
2024/02/22 05:18:41;;;;;;;;;;;;;;;19.35;49.33;99345.59;2069816;28;2026;-74
2024/02/22 05:19:42;;;;;;;;;;;;;;;19.36;49.29;99346.34;2069059;28;2264;-74
2024/02/22 05:20:44;;;;;;;;;;;;;;;19.36;49.37;99357.81;2067784;28;1712;-74
2024/02/22 05:21:51;;;;;;;;;;;;;;;19.35;49.21;99350.59;2071857;28;1862;-74
2024/02/22 05:22:52;;;;;;;;;;;;;;;19.36;49.22;99352.09;2067565;28;1859;-74
2024/02/22 05:23:54;;;;;;;;;;;;;;;19.35;49.42;99350.59;2068998;28;2049;-74
2024/02/22 05:24:55;;;;;;;;;;;;;;;19.35;49.42;99348.47;2070484;28;1969;-74
2024/02/22 05:25:57;;;;;;;;;;;;;;;19.35;49.30;99347.75;2068253;28;2018;-74
2024/02/22 05:26:58;;;;;;;;;;;;;;;19.35;49.27;99345.59;2067624;28;2151;-74